sensor_id;sensor_type;location;lat;lon;timestamp;temperature;humidity
21302;DHT22;10810;48.270;9.996;2022-10-31T00:01:20;14.10;99.90
21302;DHT22;10810;48.270;9.996;2022-10-31T00:03:48;14.60;99.90
21302;DHT22;10810;48.270;9.996;2022-10-31T00:06:18;14.10;99.90
21302;DHT22;10810;48.270;9.996;2022-10-31T00:08:45;14.10;99.90
21302;DHT22;10810;48.270;9.996;2022-10-31T00:11:16;14.10;99.90
21302;DHT22;10810;48.270;9.996;2022-10-31T00:13:43;14.00;99.90
21302;DHT22;10810;48.270;9.996;2022-10-31T00:16:30;14.00;99.90
21302;DHT22;10810;48.270;9.996;2022-10-31T00:18:59;14.00;99.90
21302;DHT22;10810;48.270;9.996;2022-10-31T00:21:29;14.00;99.90
21302;DHT22;10810;48.270;9.996;2022-10-31T00:23:58;14.00;99.90
21302;DHT22;10810;48.270;9.996;2022-10-31T00:26:27;14.00;99.90
21302;DHT22;10810;48.270;9.996;2022-10-31T00:28:54;14.00;99.90
21302;DHT22;10810;48.270;9.996;2022-10-31T00:31:22;14.00;99.90
21302;DHT22;10810;48.270;9.996;2022-10-31T00:33:49;13.90;99.90
21302;DHT22;10810;48.270;9.996;2022-10-31T00:36:18;14.10;99.90
21302;DHT22;10810;48.270;9.996;2022-10-31T00:38:48;14.00;99.90
21302;DHT22;10810;48.270;9.996;2022-10-31T00:41:16;13.90;99.90
21302;DHT22;10810;48.270;9.996;2022-10-31T00:43:44;13.90;99.90
21302;DHT22;10810;48.270;9.996;2022-10-31T00:46:12;13.90;99.90
21302;DHT22;10810;48.270;9.996;2022-10-31T00:48:40;13.90;99.90
21302;DHT22;10810;48.270;9.996;2022-10-31T00:51:08;13.90;99.90
21302;DHT22;10810;48.270;9.996;2022-10-31T00:53:36;13.80;99.90
21302;DHT22;10810;48.270;9.996;2022-10-31T00:56:06;13.80;99.90
21302;DHT22;10810;48.270;9.996;2022-10-31T00:58:44;13.80;99.90
21302;DHT22;10810;48.270;9.996;2022-10-31T01:01:12;13.80;99.90
21302;DHT22;10810;48.270;9.996;2022-10-31T01:03:39;13.80;99.90
21302;DHT22;10810;48.270;9.996;2022-10-31T01:06:10;13.80;99.90
21302;DHT22;10810;48.270;9.996;2022-10-31T01:08:42;13.80;99.90
21302;DHT22;10810;48.270;9.996;2022-10-31T01:11:13;13.80;99.90
21302;DHT22;10810;48.270;9.996;2022-10-31T01:13:42;13.10;99.90
21302;DHT22;10810;48.270;9.996;2022-10-31T01:16:11;13.70;99.90
21302;DHT22;10810;48.270;9.996;2022-10-31T01:18:39;13.80;99.90
21302;DHT22;10810;48.270;9.996;2022-10-31T01:21:08;13.60;99.90
21302;DHT22;10810;48.270;9.996;2022-10-31T01:23:36;13.70;99.90
21302;DHT22;10810;48.270;9.996;2022-10-31T01:26:06;13.60;99.90
21302;DHT22;10810;48.270;9.996;2022-10-31T01:28:37;13.40;99.90
21302;DHT22;10810;48.270;9.996;2022-10-31T01:31:06;13.70;99.90
21302;DHT22;10810;48.270;9.996;2022-10-31T01:33:35;13.60;99.90
21302;DHT22;10810;48.270;9.996;2022-10-31T01:36:11;13.70;99.90
21302;DHT22;10810;48.270;9.996;2022-10-31T01:38:45;13.60;99.90
21302;DHT22;10810;48.270;9.996;2022-10-31T01:41:17;13.60;99.90
21302;DHT22;10810;48.270;9.996;2022-10-31T01:43:49;13.20;99.90
21302;DHT22;10810;48.270;9.996;2022-10-31T01:46:20;13.60;99.90
21302;DHT22;10810;48.270;9.996;2022-10-31T01:48:49;13.50;99.90
21302;DHT22;10810;48.270;9.996;2022-10-31T01:51:20;13.50;99.90
21302;DHT22;10810;48.270;9.996;2022-10-31T01:53:48;13.60;99.90
21302;DHT22;10810;48.270;9.996;2022-10-31T01:56:18;13.60;99.90
21302;DHT22;10810;48.270;9.996;2022-10-31T01:58:47;13.50;99.90
21302;DHT22;10810;48.270;9.996;2022-10-31T02:01:16;13.50;99.90
21302;DHT22;10810;48.270;9.996;2022-10-31T02:03:44;13.50;99.90
21302;DHT22;10810;48.270;9.996;2022-10-31T02:06:20;13.50;99.90
21302;DHT22;10810;48.270;9.996;2022-10-31T02:08:48;13.30;99.90
21302;DHT22;10810;48.270;9.996;2022-10-31T02:11:16;13.40;99.90
21302;DHT22;10810;48.270;9.996;2022-10-31T02:13:44;13.40;99.90
21302;DHT22;10810;48.270;9.996;2022-10-31T02:16:14;13.40;99.90
21302;DHT22;10810;48.270;9.996;2022-10-31T02:18:41;13.40;99.90
21302;DHT22;10810;48.270;9.996;2022-10-31T02:21:15;13.40;99.90
21302;DHT22;10810;48.270;9.996;2022-10-31T02:24:07;13.40;99.90
21302;DHT22;10810;48.270;9.996;2022-10-31T02:26:57;13.40;99.90
21302;DHT22;10810;48.270;9.996;2022-10-31T02:29:52;13.40;99.90
21302;DHT22;10810;48.270;9.996;2022-10-31T02:32:27;13.30;99.90
21302;DHT22;10810;48.270;9.996;2022-10-31T02:35:02;13.40;99.90
21302;DHT22;10810;48.270;9.996;2022-10-31T02:37:38;13.30;99.90
21302;DHT22;10810;48.270;9.996;2022-10-31T02:40:14;13.30;99.90
21302;DHT22;10810;48.270;9.996;2022-10-31T02:42:47;13.30;99.90
21302;DHT22;10810;48.270;9.996;2022-10-31T02:45:24;13.30;99.90
21302;DHT22;10810;48.270;9.996;2022-10-31T02:47:55;13.30;99.90
21302;DHT22;10810;48.270;9.996;2022-10-31T02:50:28;13.20;99.90
21302;DHT22;10810;48.270;9.996;2022-10-31T02:52:57;13.20;99.90
21302;DHT22;10810;48.270;9.996;2022-10-31T02:55:58;13.20;99.90
21302;DHT22;10810;48.270;9.996;2022-10-31T02:58:29;13.20;99.90
21302;DHT22;10810;48.270;9.996;2022-10-31T03:01:33;13.20;99.90
21302;DHT22;10810;48.270;9.996;2022-10-31T03:04:31;13.20;99.90
21302;DHT22;10810;48.270;9.996;2022-10-31T03:07:07;13.10;99.90
21302;DHT22;10810;48.270;9.996;2022-10-31T03:09:42;13.20;99.90
21302;DHT22;10810;48.270;9.996;2022-10-31T03:12:17;13.10;99.90
21302;DHT22;10810;48.270;9.996;2022-10-31T03:14:51;13.10;99.90
21302;DHT22;10810;48.270;9.996;2022-10-31T03:17:22;13.10;99.90
21302;DHT22;10810;48.270;9.996;2022-10-31T03:19:54;13.10;99.90
21302;DHT22;10810;48.270;9.996;2022-10-31T03:22:25;13.10;99.90
21302;DHT22;10810;48.270;9.996;2022-10-31T03:24:53;13.10;99.90
21302;DHT22;10810;48.270;9.996;2022-10-31T03:27:34;13.10;99.90
21302;DHT22;10810;48.270;9.996;2022-10-31T03:30:05;13.10;99.90
21302;DHT22;10810;48.270;9.996;2022-10-31T03:32:37;13.00;99.90
21302;DHT22;10810;48.270;9.996;2022-10-31T03:35:10;13.00;99.90
21302;DHT22;10810;48.270;9.996;2022-10-31T03:37:40;13.00;99.90
21302;DHT22;10810;48.270;9.996;2022-10-31T03:40:11;13.10;99.90
21302;DHT22;10810;48.270;9.996;2022-10-31T03:42:42;12.80;99.90
21302;DHT22;10810;48.270;9.996;2022-10-31T03:45:13;13.00;99.90
21302;DHT22;10810;48.270;9.996;2022-10-31T03:47:43;13.00;99.90
21302;DHT22;10810;48.270;9.996;2022-10-31T03:50:14;13.00;99.90
21302;DHT22;10810;48.270;9.996;2022-10-31T03:52:45;12.90;99.90
21302;DHT22;10810;48.270;9.996;2022-10-31T03:55:18;12.90;99.90
21302;DHT22;10810;48.270;9.996;2022-10-31T03:57:49;12.90;99.90
21302;DHT22;10810;48.270;9.996;2022-10-31T04:00:21;12.90;99.90
21302;DHT22;10810;48.270;9.996;2022-10-31T04:02:55;12.90;99.90
21302;DHT22;10810;48.270;9.996;2022-10-31T04:05:27;12.60;99.90
21302;DHT22;10810;48.270;9.996;2022-10-31T04:07:58;12.90;99.90
21302;DHT22;10810;48.270;9.996;2022-10-31T04:10:29;12.90;99.90
21302;DHT22;10810;48.270;9.996;2022-10-31T04:13:04;12.80;99.90
21302;DHT22;10810;48.270;9.996;2022-10-31T04:15:37;13.00;99.90
21302;DHT22;10810;48.270;9.996;2022-10-31T04:18:05;12.80;99.90
21302;DHT22;10810;48.270;9.996;2022-10-31T04:20:42;12.00;99.90
21302;DHT22;10810;48.270;9.996;2022-10-31T04:23:18;12.80;99.90
21302;DHT22;10810;48.270;9.996;2022-10-31T04:26:00;12.80;99.90
21302;DHT22;10810;48.270;9.996;2022-10-31T04:28:30;12.80;99.90
21302;DHT22;10810;48.270;9.996;2022-10-31T04:30:59;12.80;99.90
21302;DHT22;10810;48.270;9.996;2022-10-31T04:33:27;12.80;99.90
21302;DHT22;10810;48.270;9.996;2022-10-31T04:35:56;12.70;99.90
21302;DHT22;10810;48.270;9.996;2022-10-31T04:38:23;12.70;99.90
21302;DHT22;10810;48.270;9.996;2022-10-31T04:40:51;12.80;99.90
21302;DHT22;10810;48.270;9.996;2022-10-31T04:43:18;12.70;99.90
21302;DHT22;10810;48.270;9.996;2022-10-31T04:45:47;12.70;99.90
21302;DHT22;10810;48.270;9.996;2022-10-31T04:48:14;12.70;99.90
21302;DHT22;10810;48.270;9.996;2022-10-31T04:50:42;12.70;99.90
21302;DHT22;10810;48.270;9.996;2022-10-31T04:53:12;12.70;99.90
21302;DHT22;10810;48.270;9.996;2022-10-31T04:55:40;12.70;99.90
21302;DHT22;10810;48.270;9.996;2022-10-31T04:58:07;12.70;99.90
21302;DHT22;10810;48.270;9.996;2022-10-31T05:00:36;12.60;99.90
21302;DHT22;10810;48.270;9.996;2022-10-31T05:03:04;13.50;99.90
21302;DHT22;10810;48.270;9.996;2022-10-31T05:05:32;12.80;99.90
21302;DHT22;10810;48.270;9.996;2022-10-31T05:07:59;12.40;99.90
21302;DHT22;10810;48.270;9.996;2022-10-31T05:10:30;12.60;99.90
21302;DHT22;10810;48.270;9.996;2022-10-31T05:12:59;12.20;99.90
21302;DHT22;10810;48.270;9.996;2022-10-31T05:15:27;11.90;99.90
21302;DHT22;10810;48.270;9.996;2022-10-31T05:17:55;12.60;99.90
21302;DHT22;10810;48.270;9.996;2022-10-31T05:20:29;12.60;99.90
21302;DHT22;10810;48.270;9.996;2022-10-31T05:23:00;12.60;99.90
21302;DHT22;10810;48.270;9.996;2022-10-31T05:25:29;11.80;99.90
21302;DHT22;10810;48.270;9.996;2022-10-31T05:27:59;12.50;99.90
21302;DHT22;10810;48.270;9.996;2022-10-31T05:30:29;12.50;99.90
21302;DHT22;10810;48.270;9.996;2022-10-31T05:33:00;12.50;99.90
21302;DHT22;10810;48.270;9.996;2022-10-31T05:35:30;12.50;99.90
21302;DHT22;10810;48.270;9.996;2022-10-31T05:38:00;12.50;99.90
21302;DHT22;10810;48.270;9.996;2022-10-31T05:40:32;12.50;99.90
21302;DHT22;10810;48.270;9.996;2022-10-31T05:43:03;12.50;99.90
21302;DHT22;10810;48.270;9.996;2022-10-31T05:45:31;12.50;99.90
21302;DHT22;10810;48.270;9.996;2022-10-31T05:48:00;12.40;99.90
21302;DHT22;10810;48.270;9.996;2022-10-31T05:50:30;12.40;99.90
21302;DHT22;10810;48.270;9.996;2022-10-31T05:52:59;12.50;99.90
21302;DHT22;10810;48.270;9.996;2022-10-31T05:55:33;12.60;99.90
21302;DHT22;10810;48.270;9.996;2022-10-31T05:58:03;12.50;99.90
21302;DHT22;10810;48.270;9.996;2022-10-31T06:00:35;12.40;99.90
21302;DHT22;10810;48.270;9.996;2022-10-31T06:03:06;12.40;99.90
21302;DHT22;10810;48.270;9.996;2022-10-31T06:05:38;12.40;99.90
21302;DHT22;10810;48.270;9.996;2022-10-31T06:08:05;12.40;99.90
21302;DHT22;10810;48.270;9.996;2022-10-31T06:10:36;11.40;99.90
21302;DHT22;10810;48.270;9.996;2022-10-31T06:13:05;12.40;99.90
21302;DHT22;10810;48.270;9.996;2022-10-31T06:15:34;12.50;99.90
21302;DHT22;10810;48.270;9.996;2022-10-31T06:18:08;12.40;99.90
21302;DHT22;10810;48.270;9.996;2022-10-31T06:20:37;12.50;99.90
21302;DHT22;10810;48.270;9.996;2022-10-31T06:23:05;12.40;99.90
21302;DHT22;10810;48.270;9.996;2022-10-31T06:25:37;12.40;99.90
21302;DHT22;10810;48.270;9.996;2022-10-31T06:28:05;12.40;99.90
21302;DHT22;10810;48.270;9.996;2022-10-31T06:30:37;12.40;99.90
21302;DHT22;10810;48.270;9.996;2022-10-31T06:33:10;12.40;99.90
21302;DHT22;10810;48.270;9.996;2022-10-31T06:35:46;12.30;99.90
21302;DHT22;10810;48.270;9.996;2022-10-31T06:38:14;12.30;99.90
21302;DHT22;10810;48.270;9.996;2022-10-31T06:40:47;12.30;99.90
21302;DHT22;10810;48.270;9.996;2022-10-31T06:43:15;12.30;99.90
21302;DHT22;10810;48.270;9.996;2022-10-31T06:45:44;12.30;99.90
21302;DHT22;10810;48.270;9.996;2022-10-31T06:48:15;12.30;99.90
21302;DHT22;10810;48.270;9.996;2022-10-31T06:50:46;12.30;99.90
21302;DHT22;10810;48.270;9.996;2022-10-31T06:53:16;12.10;99.90
21302;DHT22;10810;48.270;9.996;2022-10-31T06:55:59;12.40;99.90
21302;DHT22;10810;48.270;9.996;2022-10-31T06:58:28;12.30;99.90
21302;DHT22;10810;48.270;9.996;2022-10-31T07:00:55;12.30;99.90
21302;DHT22;10810;48.270;9.996;2022-10-31T07:03:25;12.30;99.90
21302;DHT22;10810;48.270;9.996;2022-10-31T07:05:55;12.30;99.90
21302;DHT22;10810;48.270;9.996;2022-10-31T07:08:25;12.30;99.90
21302;DHT22;10810;48.270;9.996;2022-10-31T07:10:54;12.20;99.90
21302;DHT22;10810;48.270;9.996;2022-10-31T07:13:25;12.20;99.90
21302;DHT22;10810;48.270;9.996;2022-10-31T07:15:53;12.20;99.90
21302;DHT22;10810;48.270;9.996;2022-10-31T07:18:46;12.20;99.90
21302;DHT22;10810;48.270;9.996;2022-10-31T07:21:44;12.20;99.90
21302;DHT22;10810;48.270;9.996;2022-10-31T07:24:58;11.50;99.90
21302;DHT22;10810;48.270;9.996;2022-10-31T07:28:20;12.80;99.90
21302;DHT22;10810;48.270;9.996;2022-10-31T07:30:56;12.20;99.90
21302;DHT22;10810;48.270;9.996;2022-10-31T07:43:49;11.70;99.90
21302;DHT22;10810;48.270;9.996;2022-10-31T07:46:17;12.30;99.90
21302;DHT22;10810;48.270;9.996;2022-10-31T07:48:45;12.20;99.90
21302;DHT22;10810;48.270;9.996;2022-10-31T07:51:12;12.30;99.90
21302;DHT22;10810;48.270;9.996;2022-10-31T07:53:39;12.30;99.90
21302;DHT22;10810;48.270;9.996;2022-10-31T07:56:06;12.30;99.90
21302;DHT22;10810;48.270;9.996;2022-10-31T07:58:33;12.30;99.90
21302;DHT22;10810;48.270;9.996;2022-10-31T08:01:00;12.30;99.90
21302;DHT22;10810;48.270;9.996;2022-10-31T08:03:29;12.30;99.90
21302;DHT22;10810;48.270;9.996;2022-10-31T08:05:57;12.30;99.90
21302;DHT22;10810;48.270;9.996;2022-10-31T08:08:24;12.30;99.90
21302;DHT22;10810;48.270;9.996;2022-10-31T08:10:53;12.30;99.90
21302;DHT22;10810;48.270;9.996;2022-10-31T08:13:20;12.30;99.90
21302;DHT22;10810;48.270;9.996;2022-10-31T08:15:50;12.30;99.90
21302;DHT22;10810;48.270;9.996;2022-10-31T08:18:19;12.20;99.90
21302;DHT22;10810;48.270;9.996;2022-10-31T08:20:53;12.60;99.90
21302;DHT22;10810;48.270;9.996;2022-10-31T08:23:22;12.40;99.90
21302;DHT22;10810;48.270;9.996;2022-10-31T08:25:53;12.50;99.90
21302;DHT22;10810;48.270;9.996;2022-10-31T08:28:47;12.40;99.90
21302;DHT22;10810;48.270;9.996;2022-10-31T08:34:13;12.40;99.90
21302;DHT22;10810;48.270;9.996;2022-10-31T08:36:57;12.40;99.90
21302;DHT22;10810;48.270;9.996;2022-10-31T08:39:28;12.40;99.90
21302;DHT22;10810;48.270;9.996;2022-10-31T08:42:01;12.40;99.90
21302;DHT22;10810;48.270;9.996;2022-10-31T08:45:22;12.40;99.90
21302;DHT22;10810;48.270;9.996;2022-10-31T08:49:48;12.40;99.90
21302;DHT22;10810;48.270;9.996;2022-10-31T08:50:39;12.40;99.90
21302;DHT22;10810;48.270;9.996;2022-10-31T08:53:12;12.40;99.90
21302;DHT22;10810;48.270;9.996;2022-10-31T08:56:34;12.50;99.90
21302;DHT22;10810;48.270;9.996;2022-10-31T08:58:53;12.50;99.90
21302;DHT22;10810;48.270;9.996;2022-10-31T09:01:39;12.50;99.90
21302;DHT22;10810;48.270;9.996;2022-10-31T09:04:18;12.70;99.90
21302;DHT22;10810;48.270;9.996;2022-10-31T09:06:49;12.60;99.90
21302;DHT22;10810;48.270;9.996;2022-10-31T09:09:46;12.60;99.90
21302;DHT22;10810;48.270;9.996;2022-10-31T09:12:16;12.60;99.90
21302;DHT22;10810;48.270;9.996;2022-10-31T09:14:48;11.50;99.90
21302;DHT22;10810;48.270;9.996;2022-10-31T09:17:23;12.60;99.90
21302;DHT22;10810;48.270;9.996;2022-10-31T09:19:58;12.70;99.90
21302;DHT22;10810;48.270;9.996;2022-10-31T09:23:31;12.30;99.90
21302;DHT22;10810;48.270;9.996;2022-10-31T09:26:09;12.80;99.90
21302;DHT22;10810;48.270;9.996;2022-10-31T09:28:39;12.70;99.90
21302;DHT22;10810;48.270;9.996;2022-10-31T09:31:23;12.70;99.90
21302;DHT22;10810;48.270;9.996;2022-10-31T09:34:12;12.70;99.90
21302;DHT22;10810;48.270;9.996;2022-10-31T09:36:48;12.70;99.90
21302;DHT22;10810;48.270;9.996;2022-10-31T09:39:17;12.70;99.90
21302;DHT22;10810;48.270;9.996;2022-10-31T09:42:00;12.80;99.90
21302;DHT22;10810;48.270;9.996;2022-10-31T09:44:41;12.80;99.90
21302;DHT22;10810;48.270;9.996;2022-10-31T09:47:36;12.80;99.90
21302;DHT22;10810;48.270;9.996;2022-10-31T09:50:18;12.80;99.90
21302;DHT22;10810;48.270;9.996;2022-10-31T09:52:53;12.90;99.90
21302;DHT22;10810;48.270;9.996;2022-10-31T09:56:02;12.80;99.90
21302;DHT22;10810;48.270;9.996;2022-10-31T09:58:24;12.80;99.90
21302;DHT22;10810;48.270;9.996;2022-10-31T10:00:56;12.90;99.90
21302;DHT22;10810;48.270;9.996;2022-10-31T10:03:47;12.90;99.90
21302;DHT22;10810;48.270;9.996;2022-10-31T10:06:21;12.90;99.90
21302;DHT22;10810;48.270;9.996;2022-10-31T10:08:56;12.90;99.90
21302;DHT22;10810;48.270;9.996;2022-10-31T10:11:55;12.90;99.90
21302;DHT22;10810;48.270;9.996;2022-10-31T10:14:45;13.00;99.90
21302;DHT22;10810;48.270;9.996;2022-10-31T10:17:24;13.00;99.90
21302;DHT22;10810;48.270;9.996;2022-10-31T10:20:24;13.00;99.90
21302;DHT22;10810;48.270;9.996;2022-10-31T10:23:20;13.00;99.90
21302;DHT22;10810;48.270;9.996;2022-10-31T10:25:56;13.10;99.90
21302;DHT22;10810;48.270;9.996;2022-10-31T10:28:49;13.10;99.90
21302;DHT22;10810;48.270;9.996;2022-10-31T10:31:23;13.10;99.90
21302;DHT22;10810;48.270;9.996;2022-10-31T10:34:06;13.10;99.90
21302;DHT22;10810;48.270;9.996;2022-10-31T10:36:40;13.10;99.90
21302;DHT22;10810;48.270;9.996;2022-10-31T10:39:16;13.10;99.90
21302;DHT22;10810;48.270;9.996;2022-10-31T10:41:48;13.10;99.90
21302;DHT22;10810;48.270;9.996;2022-10-31T10:44:31;13.20;99.90
21302;DHT22;10810;48.270;9.996;2022-10-31T10:47:17;13.20;99.90
21302;DHT22;10810;48.270;9.996;2022-10-31T10:50:07;13.20;99.90
21302;DHT22;10810;48.270;9.996;2022-10-31T10:52:43;13.20;99.90
21302;DHT22;10810;48.270;9.996;2022-10-31T10:55:17;13.20;99.90
21302;DHT22;10810;48.270;9.996;2022-10-31T10:57:54;13.20;99.90
21302;DHT22;10810;48.270;9.996;2022-10-31T11:00:24;13.20;99.90
21302;DHT22;10810;48.270;9.996;2022-10-31T11:02:55;13.30;99.90
21302;DHT22;10810;48.270;9.996;2022-10-31T11:05:42;13.30;99.90
21302;DHT22;10810;48.270;9.996;2022-10-31T11:08:22;13.30;99.90
21302;DHT22;10810;48.270;9.996;2022-10-31T11:11:17;13.30;99.90
21302;DHT22;10810;48.270;9.996;2022-10-31T11:14:11;13.30;99.90
21302;DHT22;10810;48.270;9.996;2022-10-31T11:17:09;13.30;99.90
21302;DHT22;10810;48.270;9.996;2022-10-31T11:19:38;13.30;99.90
21302;DHT22;10810;48.270;9.996;2022-10-31T11:22:15;13.40;99.90
21302;DHT22;10810;48.270;9.996;2022-10-31T11:25:14;13.40;99.90
21302;DHT22;10810;48.270;9.996;2022-10-31T11:28:09;13.40;99.90
21302;DHT22;10810;48.270;9.996;2022-10-31T11:30:59;13.40;99.90
21302;DHT22;10810;48.270;9.996;2022-10-31T11:33:51;13.40;99.90
21302;DHT22;10810;48.270;9.996;2022-10-31T11:36:37;13.40;99.90
21302;DHT22;10810;48.270;9.996;2022-10-31T11:39:17;13.40;99.90
21302;DHT22;10810;48.270;9.996;2022-10-31T11:41:51;13.40;99.90
21302;DHT22;10810;48.270;9.996;2022-10-31T11:44:20;13.40;99.90
21302;DHT22;10810;48.270;9.996;2022-10-31T11:46:49;13.50;99.90
21302;DHT22;10810;48.270;9.996;2022-10-31T11:49:20;13.50;99.90
21302;DHT22;10810;48.270;9.996;2022-10-31T11:52:14;13.50;99.90
21302;DHT22;10810;48.270;9.996;2022-10-31T11:54:46;13.50;99.90
21302;DHT22;10810;48.270;9.996;2022-10-31T11:57:43;13.60;99.90
21302;DHT22;10810;48.270;9.996;2022-10-31T12:00:23;13.60;99.90
21302;DHT22;10810;48.270;9.996;2022-10-31T12:03:06;13.60;99.90
21302;DHT22;10810;48.270;9.996;2022-10-31T12:05:39;13.60;99.90
21302;DHT22;10810;48.270;9.996;2022-10-31T12:08:25;13.70;99.90
21302;DHT22;10810;48.270;9.996;2022-10-31T12:11:00;13.70;99.90
21302;DHT22;10810;48.270;9.996;2022-10-31T12:13:33;13.70;99.90
21302;DHT22;10810;48.270;9.996;2022-10-31T12:16:09;13.70;99.90
21302;DHT22;10810;48.270;9.996;2022-10-31T12:18:55;13.80;99.90
21302;DHT22;10810;48.270;9.996;2022-10-31T12:21:34;13.80;99.90
21302;DHT22;10810;48.270;9.996;2022-10-31T12:24:16;13.80;99.90
21302;DHT22;10810;48.270;9.996;2022-10-31T12:26:59;13.80;99.90
21302;DHT22;10810;48.270;9.996;2022-10-31T12:29:44;13.30;99.90
21302;DHT22;10810;48.270;9.996;2022-10-31T12:32:25;13.90;99.90
21302;DHT22;10810;48.270;9.996;2022-10-31T12:35:23;13.90;99.90
21302;DHT22;10810;48.270;9.996;2022-10-31T12:38:07;13.20;99.90
21302;DHT22;10810;48.270;9.996;2022-10-31T12:40:55;13.90;99.90
21302;DHT22;10810;48.270;9.996;2022-10-31T12:43:35;14.00;99.90
21302;DHT22;10810;48.270;9.996;2022-10-31T12:46:07;13.60;99.90
21302;DHT22;10810;48.270;9.996;2022-10-31T12:49:09;14.00;99.90
21302;DHT22;10810;48.270;9.996;2022-10-31T12:51:48;14.00;99.90
21302;DHT22;10810;48.270;9.996;2022-10-31T12:54:29;14.00;99.90
21302;DHT22;10810;48.270;9.996;2022-10-31T12:57:06;14.00;99.90
21302;DHT22;10810;48.270;9.996;2022-10-31T13:00:10;14.00;99.90
21302;DHT22;10810;48.270;9.996;2022-10-31T13:02:41;13.40;99.90
21302;DHT22;10810;48.270;9.996;2022-10-31T13:05:37;14.10;99.90
21302;DHT22;10810;48.270;9.996;2022-10-31T13:08:39;14.10;99.90
21302;DHT22;10810;48.270;9.996;2022-10-31T13:11:15;14.20;99.90
21302;DHT22;10810;48.270;9.996;2022-10-31T13:13:56;14.20;99.90
21302;DHT22;10810;48.270;9.996;2022-10-31T13:16:32;14.30;99.90
21302;DHT22;10810;48.270;9.996;2022-10-31T13:19:05;14.40;99.90
21302;DHT22;10810;48.270;9.996;2022-10-31T13:22:02;14.40;99.90
21302;DHT22;10810;48.270;9.996;2022-10-31T13:24:52;14.50;99.90
21302;DHT22;10810;48.270;9.996;2022-10-31T13:27:26;14.50;99.90
21302;DHT22;10810;48.270;9.996;2022-10-31T13:30:01;14.50;99.90
21302;DHT22;10810;48.270;9.996;2022-10-31T13:32:53;14.60;99.90
21302;DHT22;10810;48.270;9.996;2022-10-31T13:35:59;14.60;99.90
21302;DHT22;10810;48.270;9.996;2022-10-31T13:38:36;14.70;99.90
21302;DHT22;10810;48.270;9.996;2022-10-31T14:05:03;14.70;99.90
21302;DHT22;10810;48.270;9.996;2022-10-31T14:07:28;14.70;99.90
21302;DHT22;10810;48.270;9.996;2022-10-31T14:10:05;14.70;99.90
21302;DHT22;10810;48.270;9.996;2022-10-31T14:12:38;14.70;99.90
21302;DHT22;10810;48.270;9.996;2022-10-31T14:15:15;14.70;99.90
21302;DHT22;10810;48.270;9.996;2022-10-31T14:17:52;14.80;99.90
21302;DHT22;10810;48.270;9.996;2022-10-31T14:23:37;14.80;99.90
21302;DHT22;10810;48.270;9.996;2022-10-31T14:26:30;14.80;99.90
21302;DHT22;10810;48.270;9.996;2022-10-31T14:29:01;14.70;99.90
21302;DHT22;10810;48.270;9.996;2022-10-31T14:31:41;14.80;99.90
21302;DHT22;10810;48.270;9.996;2022-10-31T14:34:27;14.80;99.90
21302;DHT22;10810;48.270;9.996;2022-10-31T14:43:10;14.90;99.90
21302;DHT22;10810;48.270;9.996;2022-10-31T14:45:47;14.80;99.90
21302;DHT22;10810;48.270;9.996;2022-10-31T14:48:46;14.90;99.90
21302;DHT22;10810;48.270;9.996;2022-10-31T14:51:26;14.90;99.90
21302;DHT22;10810;48.270;9.996;2022-10-31T14:54:30;14.90;99.90
21302;DHT22;10810;48.270;9.996;2022-10-31T14:56:56;15.00;99.90
21302;DHT22;10810;48.270;9.996;2022-10-31T14:59:37;15.00;99.90
21302;DHT22;10810;48.270;9.996;2022-10-31T15:02:24;15.80;99.90
21302;DHT22;10810;48.270;9.996;2022-10-31T15:05:03;15.00;99.90
21302;DHT22;10810;48.270;9.996;2022-10-31T15:07:50;15.00;99.90
21302;DHT22;10810;48.270;9.996;2022-10-31T15:10:23;15.00;99.90
21302;DHT22;10810;48.270;9.996;2022-10-31T15:12:55;15.00;99.90
21302;DHT22;10810;48.270;9.996;2022-10-31T15:16:11;15.10;99.90
21302;DHT22;10810;48.270;9.996;2022-10-31T15:18:32;15.10;99.90
21302;DHT22;10810;48.270;9.996;2022-10-31T15:21:17;15.10;99.90
21302;DHT22;10810;48.270;9.996;2022-10-31T15:23:46;15.10;99.90
21302;DHT22;10810;48.270;9.996;2022-10-31T15:26:17;15.10;99.90
21302;DHT22;10810;48.270;9.996;2022-10-31T15:29:02;15.10;99.90
21302;DHT22;10810;48.270;9.996;2022-10-31T15:32:32;15.10;99.90
21302;DHT22;10810;48.270;9.996;2022-10-31T15:35:26;15.10;99.90
21302;DHT22;10810;48.270;9.996;2022-10-31T15:38:07;15.10;99.90
21302;DHT22;10810;48.270;9.996;2022-10-31T15:40:58;15.10;99.90
21302;DHT22;10810;48.270;9.996;2022-10-31T15:43:43;15.10;99.90
21302;DHT22;10810;48.270;9.996;2022-10-31T15:47:12;15.10;99.90
21302;DHT22;10810;48.270;9.996;2022-10-31T15:55:48;15.10;99.90
21302;DHT22;10810;48.270;9.996;2022-10-31T15:58:57;15.10;99.90
21302;DHT22;10810;48.270;9.996;2022-10-31T16:02:09;15.10;99.90
21302;DHT22;10810;48.270;9.996;2022-10-31T16:05:01;15.10;99.90
21302;DHT22;10810;48.270;9.996;2022-10-31T16:08:31;15.10;99.90
21302;DHT22;10810;48.270;9.996;2022-10-31T16:16:10;15.00;99.90
21302;DHT22;10810;48.270;9.996;2022-10-31T16:17:45;14.40;99.90
21302;DHT22;10810;48.270;9.996;2022-10-31T16:23:45;15.00;99.90
21302;DHT22;10810;48.270;9.996;2022-10-31T16:26:37;15.00;99.90
21302;DHT22;10810;48.270;9.996;2022-10-31T16:38:45;14.90;99.90
21302;DHT22;10810;48.270;9.996;2022-10-31T16:44:59;14.90;99.90
21302;DHT22;10810;48.270;9.996;2022-10-31T16:48:05;14.80;99.90
21302;DHT22;10810;48.270;9.996;2022-10-31T16:50:45;14.80;99.90
21302;DHT22;10810;48.270;9.996;2022-10-31T16:53:16;14.80;99.90
21302;DHT22;10810;48.270;9.996;2022-10-31T16:56:24;15.10;99.90
21302;DHT22;10810;48.270;9.996;2022-10-31T16:59:14;14.70;99.90
21302;DHT22;10810;48.270;9.996;2022-10-31T17:05:42;14.70;99.90
21302;DHT22;10810;48.270;9.996;2022-10-31T17:18:15;14.60;99.90
21302;DHT22;10810;48.270;9.996;2022-10-31T17:21:48;14.60;99.90
21302;DHT22;10810;48.270;9.996;2022-10-31T17:24:37;14.60;99.90
21302;DHT22;10810;48.270;9.996;2022-10-31T17:28:07;14.60;99.90
21302;DHT22;10810;48.270;9.996;2022-10-31T17:33:15;14.60;99.90
21302;DHT22;10810;48.270;9.996;2022-10-31T17:34:38;14.50;99.90
21302;DHT22;10810;48.270;9.996;2022-10-31T17:37:24;14.50;99.90
21302;DHT22;10810;48.270;9.996;2022-10-31T17:39:54;14.50;99.90
21302;DHT22;10810;48.270;9.996;2022-10-31T17:43:02;14.50;99.90
21302;DHT22;10810;48.270;9.996;2022-10-31T17:45:53;14.50;99.90
21302;DHT22;10810;48.270;9.996;2022-10-31T17:49:20;14.50;99.90
21302;DHT22;10810;48.270;9.996;2022-10-31T18:05:07;14.40;99.90
21302;DHT22;10810;48.270;9.996;2022-10-31T18:07:49;14.30;99.90
21302;DHT22;10810;48.270;9.996;2022-10-31T18:21:03;14.30;99.90
21302;DHT22;10810;48.270;9.996;2022-10-31T18:24:03;14.00;99.90
21302;DHT22;10810;48.270;9.996;2022-10-31T18:26:30;14.30;99.90
21302;DHT22;10810;48.270;9.996;2022-10-31T18:29:28;14.20;99.90